Amonate, Virginia
Current Conditions -  °F | °C
As of 11:55 AM on Thursday 27 Nov 2014 (Local Time) from KJFZ Reporting Station
Overcast Overcast  
Wind Chill: 26°   Ceiling: 700
Heat Index: 32°   Visibility: 10mi
Dew Point: 29°   Wind: 7mph
Humidity: 90%   Direction: 310°NW
Pressure: 30.11"   Gusts: NA
Location:  37.19°N, 81.64°W
Report Text: KJFZ 271655Z AUTO 31006KT 10SM OVC007 00/M01 A3011 RMK AO2 T00001015
Loading
Personal Weather Stations






























Interactive Weather Map New forecast layout! Learn more

10-Day Weather Forecast

Advertisements
Track Severe Weather on mobile